createdAt,value
2022-07-25T00:00:45.388Z,13.6
2022-07-25T00:05:45.753Z,13.6
2022-07-25T00:10:46.146Z,11.1
2022-07-25T00:15:46.480Z,12.0
2022-07-25T00:20:46.741Z,9.0
2022-07-25T00:25:47.091Z,10.3
2022-07-25T00:30:47.587Z,8.5
2022-07-25T00:35:47.800Z,17.5
2022-07-25T00:40:55.476Z,9.9
2022-07-25T00:45:48.433Z,11.8
2022-07-25T00:50:50.822Z,10.5
2022-07-25T00:55:49.060Z,17.1
2022-07-25T01:00:49.439Z,14.6
2022-07-25T01:05:53.536Z,12.6
2022-07-25T01:10:50.027Z,12.6
2022-07-25T01:15:50.400Z,10.0
2022-07-25T01:20:50.710Z,14.5
2022-07-25T01:35:51.738Z,17.7
2022-07-25T01:40:52.147Z,17.7
2022-07-25T01:45:52.553Z,17.2
2022-07-25T01:50:52.829Z,17.2
2022-07-25T01:55:53.150Z,19.3
2022-07-25T02:00:53.487Z,20.1
2022-07-25T02:05:53.903Z,15.5
2022-07-25T02:10:54.198Z,15.5
2022-07-25T02:15:56.510Z,10.7
2022-07-25T02:20:54.854Z,10.7
2022-07-25T02:30:55.563Z,12.6
2022-07-25T02:35:55.837Z,12.6
2022-07-25T02:40:56.301Z,10.2
2022-07-25T02:45:58.625Z,14.4
2022-07-25T02:50:56.834Z,11.1
2022-07-25T02:55:57.207Z,11.1
2022-07-25T03:00:57.594Z,13.4
2022-07-25T03:05:57.864Z,11.7
2022-07-25T03:10:58.134Z,12.3
2022-07-25T03:15:58.523Z,12.7
2022-07-25T03:20:58.786Z,7.1
2022-07-25T03:25:59.035Z,12.6
2022-07-25T03:30:59.366Z,12.5
2022-07-25T03:35:59.623Z,13.8
2022-07-25T03:40:59.910Z,14.6
2022-07-25T03:46:00.237Z,14.6
2022-07-25T03:51:04.957Z,16.9
2022-07-25T03:56:00.633Z,16.0
2022-07-25T04:01:01.021Z,17.6
2022-07-25T04:06:01.227Z,17.6
2022-07-25T04:11:01.539Z,20.6
2022-07-25T04:16:01.857Z,8.7
2022-07-25T04:21:02.157Z,12.9
2022-07-25T04:26:02.418Z,12.9
2022-07-25T04:31:02.728Z,16.3
2022-07-25T04:36:03.045Z,19.0
2022-07-25T04:41:03.520Z,9.0
2022-07-25T04:46:03.714Z,9.0
2022-07-25T04:51:03.842Z,11.6
2022-07-25T05:01:04.585Z,10.3
2022-07-25T05:06:04.710Z,13.4
2022-07-25T05:11:05.047Z,12.0
2022-07-25T05:16:05.442Z,9.9
2022-07-25T05:21:05.651Z,9.9
2022-07-25T05:26:05.936Z,8.2
2022-07-25T05:31:06.372Z,10.7
2022-07-25T05:36:06.595Z,10.7
2022-07-25T05:41:06.977Z,16.5
2022-07-25T05:46:07.311Z,9.4
2022-07-25T05:51:07.592Z,12.3
2022-07-25T05:56:07.943Z,5.1
2022-07-25T06:01:08.287Z,5.1
2022-07-25T06:06:08.621Z,5.3
2022-07-25T06:11:08.944Z,8.2
2022-07-25T06:21:09.597Z,8.6
2022-07-25T06:26:09.930Z,6.6
2022-07-25T06:31:10.255Z,6.8
2022-07-25T06:36:10.650Z,5.2
2022-07-25T06:41:11.055Z,21.3
2022-07-25T06:46:11.536Z,10.4
2022-07-25T06:51:11.906Z,10.4
2022-07-25T06:56:17.481Z,2.7
2022-07-25T07:01:13.007Z,6.2
2022-07-25T07:06:13.365Z,6.8
2022-07-25T07:11:13.872Z,6.8
2022-07-25T07:16:14.530Z,3.0
2022-07-25T07:21:20.433Z,5.1
2022-07-25T07:26:15.494Z,2.1
2022-07-25T07:31:17.477Z,2.1
2022-07-25T07:36:16.560Z,2.0
2022-07-25T07:51:18.233Z,2.9
2022-07-25T08:01:19.336Z,3.1
2022-07-25T08:06:19.749Z,4.7
2022-07-25T08:11:20.221Z,3.0
2022-07-25T08:16:20.720Z,4.9
2022-07-25T08:21:21.149Z,3.2
2022-07-25T08:26:21.633Z,2.6
2022-07-25T08:31:22.263Z,5.3
2022-07-25T08:36:22.584Z,5.3
2022-07-25T08:41:24.782Z,2.1
2022-07-25T08:46:23.600Z,3.1
2022-07-25T08:51:29.063Z,3.1
2022-07-25T08:56:24.453Z,2.4
2022-07-25T09:01:25.088Z,2.8
2022-07-25T09:06:27.252Z,4.1
2022-07-25T09:11:25.997Z,4.1
2022-07-25T09:16:26.520Z,5.5
2022-07-25T09:21:26.986Z,5.5
2022-07-25T09:26:27.488Z,2.5
2022-07-25T09:31:28.049Z,2.5
2022-07-25T09:36:28.483Z,1.8
2022-07-25T09:41:28.977Z,4.4
2022-07-25T09:46:29.483Z,4.4
2022-07-25T09:51:29.901Z,4.5
2022-07-25T10:01:31.008Z,3.3
2022-07-25T10:06:31.427Z,2.2
2022-07-25T10:11:31.966Z,3.0
2022-07-25T10:16:32.553Z,5.0
2022-07-25T10:21:33.114Z,5.0
2022-07-25T10:26:33.649Z,6.2
2022-07-25T10:31:34.124Z,2.1
2022-07-25T10:41:35.264Z,2.0
2022-07-25T10:46:35.894Z,2.0
2022-07-25T10:51:41.353Z,3.7
2022-07-25T10:56:37.046Z,3.7
2022-07-25T11:01:37.537Z,1.3
2022-07-25T11:06:37.979Z,1.3
2022-07-25T11:11:40.499Z,15.0
2022-07-25T11:21:39.353Z,2.8
2022-07-25T11:26:39.927Z,2.8
2022-07-25T11:31:40.332Z,1.9
2022-07-25T11:36:40.723Z,1.9
2022-07-25T11:41:41.173Z,1.8
2022-07-25T11:46:41.664Z,1.1
2022-07-25T11:51:42.170Z,0.9
2022-07-25T12:01:43.219Z,2.5
2022-07-25T12:11:44.500Z,2.7
2022-07-25T12:16:45.044Z,1.7
2022-07-25T12:21:45.395Z,1.8
2022-07-25T12:26:45.941Z,1.8
2022-07-25T12:31:46.471Z,3.4
2022-07-25T12:36:47.067Z,1.3
2022-07-25T12:41:47.599Z,1.3
2022-07-25T12:46:49.591Z,1.8
2022-07-25T12:51:48.690Z,1.8
2022-07-25T12:56:49.266Z,2.4
2022-07-25T13:01:49.924Z,2.0
2022-07-25T13:06:50.442Z,4.6
2022-07-25T13:11:51.097Z,4.6
2022-07-25T13:16:51.861Z,2.2
2022-07-25T13:21:52.377Z,3.8
2022-07-25T13:26:52.876Z,1.9
2022-07-25T13:31:53.556Z,1.5
2022-07-25T13:41:54.763Z,2.1
2022-07-25T13:46:55.372Z,2.1
2022-07-25T13:51:58.096Z,2.2
2022-07-25T13:56:58.529Z,2.9
2022-07-25T14:01:57.332Z,2.9
2022-07-25T14:06:57.872Z,4.9
2022-07-25T14:11:58.539Z,2.4
2022-07-25T14:16:59.228Z,8.0
2022-07-25T14:21:59.784Z,6.3
2022-07-25T14:27:00.418Z,6.3
2022-07-25T14:32:01.143Z,3.0
2022-07-25T14:37:01.636Z,2.1
2022-07-25T14:42:02.228Z,4.3
2022-07-25T14:47:02.937Z,4.3
2022-07-25T14:52:03.438Z,2.2
2022-07-25T14:57:04.030Z,2.2
2022-07-25T15:02:04.708Z,2.1
2022-07-25T15:12:07.828Z,2.7
2022-07-25T15:17:06.395Z,3.8
2022-07-25T15:22:06.981Z,1.8
2022-07-25T15:27:08.233Z,3.5
2022-07-25T15:32:08.394Z,1.0
2022-07-25T15:42:09.538Z,2.6
2022-07-25T15:52:10.683Z,1.5
2022-07-25T15:57:11.253Z,2.9
2022-07-25T16:02:11.863Z,0.9
2022-07-25T16:12:15.159Z,0.8
2022-07-25T16:17:13.608Z,0.7
2022-07-25T16:22:14.323Z,0.7
2022-07-25T16:23:37.880Z,1.0
2022-07-25T16:42:16.782Z,2.2
2022-07-25T16:47:17.342Z,2.8
2022-07-25T16:52:17.981Z,2.1
2022-07-25T16:57:18.654Z,2.1
2022-07-25T17:02:19.264Z,1.4
2022-07-25T17:12:20.552Z,1.1
2022-07-25T17:17:21.164Z,2.2
2022-07-25T17:27:22.599Z,1.4
2022-07-25T17:32:27.779Z,0.5
2022-07-25T17:37:24.000Z,1.9
2022-07-25T17:52:26.104Z,3.2
2022-07-25T17:57:26.870Z,1.5
2022-07-25T18:02:30.080Z,2.7
2022-07-25T18:07:28.474Z,2.7
2022-07-25T18:12:29.589Z,2.9
2022-07-25T18:17:29.957Z,2.2
2022-07-25T18:22:30.554Z,1.6
2022-07-25T18:27:31.151Z,2.5
2022-07-25T18:32:31.712Z,1.6
2022-07-25T18:37:32.261Z,3.2
2022-07-25T18:42:32.799Z,3.2
2022-07-25T18:47:33.307Z,5.8
2022-07-25T18:52:33.820Z,2.7
2022-07-25T18:57:34.291Z,1.5
2022-07-25T19:02:34.759Z,11.0
2022-07-25T19:07:35.209Z,11.9
2022-07-25T19:12:35.681Z,4.6
2022-07-25T19:22:36.593Z,4.0
2022-07-25T19:27:36.954Z,3.6
2022-07-25T19:32:37.465Z,3.5
2022-07-25T19:37:37.837Z,10.2
2022-07-25T19:42:38.190Z,2.4
2022-07-25T19:47:38.728Z,2.4
2022-07-25T19:52:40.138Z,1.1
2022-07-25T19:57:39.372Z,1.1
2022-07-25T20:02:39.881Z,4.4
2022-07-25T20:07:40.387Z,12.3
2022-07-25T20:12:40.452Z,0.9
2022-07-25T20:17:40.836Z,0.9
2022-07-25T20:22:41.305Z,1.8
2022-07-25T20:27:41.672Z,1.8
2022-07-25T20:32:41.966Z,1.6
2022-07-25T20:42:42.625Z,1.3
2022-07-25T20:47:42.915Z,0.8
2022-07-25T20:52:43.177Z,3.0
2022-07-25T20:57:50.354Z,1.3
2022-07-25T21:02:43.841Z,0.8
2022-07-25T21:17:44.659Z,1.4
2022-07-25T21:22:45.039Z,1.2
2022-07-25T21:32:45.607Z,6.3
2022-07-25T21:37:45.891Z,0.6
2022-07-25T21:42:48.163Z,1.0
2022-07-25T21:47:46.398Z,1.6
2022-07-25T21:52:46.730Z,1.6
2022-07-25T21:57:47.007Z,1.4
2022-07-25T22:02:47.303Z,0.8
2022-07-25T22:07:47.592Z,1.3
2022-07-25T22:12:47.926Z,1.3
2022-07-25T22:17:50.023Z,1.4
2022-07-25T22:27:48.804Z,1.1
2022-07-25T22:32:49.141Z,1.1
2022-07-25T22:37:49.449Z,1.4
2022-07-25T22:42:49.709Z,3.5
2022-07-25T22:47:52.040Z,0.8
2022-07-25T22:57:50.572Z,1.5
2022-07-25T23:02:50.964Z,1.5
2022-07-25T23:07:51.160Z,3.1
2022-07-25T23:12:51.444Z,2.2
2022-07-25T23:17:51.752Z,3.7
2022-07-25T23:22:52.140Z,1.9
2022-07-25T23:27:52.361Z,1.9
2022-07-25T23:32:52.655Z,1.9
2022-07-25T23:37:52.992Z,2.0
2022-07-25T23:42:53.379Z,1.0
2022-07-25T23:47:53.559Z,1.1
2022-07-25T23:52:53.869Z,1.1
2022-07-25T23:57:54.164Z,2.7
